Time;durP1;ratioP1;P1;durP2;ratioP2;P2;SDS_P1;SDS_P2;PMS_P1;PMS_P2;Temp;Humidity;BMP_temperature;BMP_pressure;BME280_temperature;BME280_humidity;BME280_pressure;Samples;Min_cycle;Max_cycle;Signal;HPM_P1;HPM_P2
2021/11/09 00:04:13;;;;;;;11.80;7.50;;;;;;;6.71;82.69;99434.12;235040;1199;24033;-75
2021/11/09 00:09:18;;;;;;;13.60;8.30;;;;;;;6.69;82.66;99432.24;235498;1199;24232;-73
2021/11/09 00:14:21;;;;;;;14.60;8.80;;;;;;;6.70;82.87;99437.69;235624;1199;25226;-76
2021/11/09 00:19:24;;;;;;;16.60;9.40;;;;;;;6.68;82.89;99438.77;235417;1199;24063;-73
2021/11/09 00:24:26;;;;;;;12.90;9.10;;;;;;;6.66;83.06;99446.70;235465;1193;25131;-76
2021/11/09 00:29:29;;;;;;;13.60;8.60;;;;;;;6.66;82.97;99450.05;235881;1199;25166;-73
2021/11/09 00:34:35;;;;;;;15.80;9.60;;;;;;;6.63;83.14;99455.55;236067;1199;24130;-75
2021/11/09 00:39:40;;;;;;;14.80;10.00;;;;;;;6.60;83.07;99458.80;235945;1193;25051;-75
2021/11/09 00:44:43;;;;;;;17.80;10.00;;;;;;;6.62;83.25;99460.85;235780;1193;24171;-73
2021/11/09 00:49:46;;;;;;;13.80;8.80;;;;;;;6.69;83.25;99462.23;235717;1194;24569;-75
2021/11/09 00:54:51;;;;;;;13.50;8.60;;;;;;;6.73;83.20;99468.56;235675;1176;22430;-76
2021/11/09 01:00:17;;;;;;;12.10;8.30;;;;;;;6.78;83.41;99464.00;235667;1192;24988;-80
2021/11/09 01:05:25;;;;;;;12.10;7.40;;;;;;;6.81;83.29;99468.84;235664;1193;22432;-73
2021/11/09 01:10:32;;;;;;;13.40;8.20;;;;;;;6.81;83.05;99469.25;235505;1193;22446;-78
2021/11/09 01:15:53;;;;;;;12.30;8.10;;;;;;;6.80;83.04;99469.02;235660;1193;24250;-76
2021/11/09 01:21:14;;;;;;;12.40;8.10;;;;;;;6.79;82.98;99471.63;235414;1192;24202;-74
2021/11/09 01:26:24;;;;;;;10.90;7.70;;;;;;;6.78;83.04;99476.41;235627;1199;25332;-77
2021/11/09 01:31:36;;;;;;;11.90;8.40;;;;;;;6.76;83.49;99479.14;235720;1193;24047;-76
2021/11/09 01:36:39;;;;;;;15.80;8.80;;;;;;;6.72;83.23;99482.20;235499;1176;22483;-76
2021/11/09 01:41:54;;;;;;;12.80;8.30;;;;;;;6.76;83.74;99481.27;235503;1199;22440;-77
2021/11/09 01:47:05;;;;;;;12.90;8.40;;;;;;;6.74;83.46;99484.23;235717;1192;24203;-76
2021/11/09 01:52:09;;;;;;;11.00;8.00;;;;;;;6.73;83.89;99482.23;235556;1199;24034;-75
2021/11/09 01:57:11;;;;;;;12.10;7.70;;;;;;;6.73;83.77;99485.98;235298;1193;22461;-76
2021/11/09 02:02:14;;;;;;;14.00;7.50;;;;;;;6.68;83.74;99483.88;235354;1199;24159;-74
2021/11/09 02:07:17;;;;;;;12.80;7.80;;;;;;;6.65;83.80;99488.59;235550;1199;24127;-77
2021/11/09 02:12:19;;;;;;;11.20;6.80;;;;;;;6.63;83.75;99488.98;235889;1192;24086;-76
2021/11/09 02:17:24;;;;;;;13.30;7.20;;;;;;;6.59;83.75;99494.94;235451;1199;25170;-76
2021/11/09 02:22:27;;;;;;;12.80;8.10;;;;;;;6.50;83.71;99495.67;235805;1199;24086;-76
2021/11/09 02:27:33;;;;;;;12.40;7.70;;;;;;;6.50;84.25;99498.86;235840;1193;24084;-75
2021/11/09 02:32:43;;;;;;;9.50;6.80;;;;;;;6.57;84.36;99505.39;235672;1199;22422;-76
2021/11/09 02:37:45;;;;;;;12.20;7.60;;;;;;;6.56;84.02;99516.67;235591;1196;24113;-73
2021/11/09 02:43:01;;;;;;;11.20;7.00;;;;;;;6.51;84.14;99521.39;235461;1193;24060;-77
2021/11/09 03:03:41;;;;;;;10.70;6.50;;;;;;;6.68;84.38;99545.94;235084;1200;24211;-73
2021/11/09 03:09:04;;;;;;;9.80;6.10;;;;;;;6.68;83.91;99551.57;235753;1199;22443;-76
2021/11/09 03:14:07;;;;;;;9.90;6.10;;;;;;;6.63;83.76;99555.80;235414;1199;22469;-73
2021/11/09 03:19:36;;;;;;;9.80;6.20;;;;;;;6.53;83.63;99561.55;234943;1200;22588;-75
2021/11/09 03:47:07;;;;;;;10.50;6.50;;;;;;;6.55;84.13;99582.47;234922;1193;24114;-74
2021/11/09 03:52:27;;;;;;;8.80;6.00;;;;;;;6.60;84.16;99589.52;235038;1200;25282;-76
2021/11/09 03:57:50;;;;;;;10.90;6.10;;;;;;;6.61;84.46;99593.52;235025;1200;24161;-75
2021/11/09 04:13:54;;;;;;;11.20;6.10;;;;;;;6.63;84.20;99594.95;234980;1200;24152;-75
2021/11/09 05:02:54;;;;;;;11.60;7.40;;;;;;;6.86;84.26;99638.19;212098;1332;24283;-77
2021/11/09 05:12:44;;;;;;;13.30;8.10;;;;;;;6.81;84.03;99652.96;213160;1329;22787;-77
2021/11/09 05:18:03;;;;;;;14.70;7.50;;;;;;;6.82;83.94;99661.83;212977;1329;25473;-76
2021/11/09 05:23:06;;;;;;;13.40;8.10;;;;;;;6.88;84.08;99666.08;213407;1328;24286;-76
2021/11/09 05:28:17;;;;;;;18.20;8.30;;;;;;;6.89;84.22;99672.56;213480;1322;25403;-76
2021/11/09 05:33:36;;;;;;;17.20;9.30;;;;;;;6.90;84.08;99683.15;213189;1328;24279;-76
2021/11/09 05:38:54;;;;;;;19.10;10.10;;;;;;;6.86;83.72;99685.96;212932;1328;22606;-77
2021/11/09 05:43:57;;;;;;;18.30;10.90;;;;;;;6.80;83.75;99694.16;213287;1329;24298;-75
2021/11/09 05:49:01;;;;;;;14.80;8.60;;;;;;;6.78;84.02;99703.84;213074;1329;22742;-75
2021/11/09 05:54:05;;;;;;;18.80;8.90;;;;;;;6.72;84.00;99716.17;212899;1329;24279;-76
2021/11/09 05:59:08;;;;;;;15.90;8.50;;;;;;;6.71;84.30;99727.03;213010;1331;24366;-77
2021/11/09 06:04:19;;;;;;;16.30;8.90;;;;;;;6.74;84.43;99737.85;212976;1327;24391;-75
2021/11/09 06:09:37;;;;;;;17.90;9.30;;;;;;;6.75;84.21;99750.75;212547;1330;22767;-77
2021/11/09 06:14:40;;;;;;;17.00;8.30;;;;;;;6.78;84.37;99756.14;212416;1331;24810;-75
2021/11/09 06:19:43;;;;;;;15.80;7.90;;;;;;;6.76;84.21;99770.27;212440;1332;22609;-76
2021/11/09 06:24:50;;;;;;;10.40;7.50;;;;;;;6.77;84.20;99782.36;212698;1330;24310;-76
2021/11/09 06:29:52;;;;;;;17.20;8.80;;;;;;;6.77;84.25;99787.86;212934;1331;22632;-76
2021/11/09 06:34:55;;;;;;;15.40;8.50;;;;;;;6.77;84.46;99798.95;212861;1331;24727;-75
2021/11/09 06:39:58;;;;;;;14.10;7.80;;;;;;;6.79;84.50;99810.05;213154;1330;24302;-75
2021/11/09 06:45:01;;;;;;;15.50;8.60;;;;;;;6.84;84.57;99815.10;213363;1322;24819;-76
2021/11/09 06:50:06;;;;;;;12.10;8.60;;;;;;;6.92;84.53;99830.06;213056;1330;22800;-76
2021/11/09 06:55:09;;;;;;;13.60;9.20;;;;;;;6.93;84.32;99834.60;213028;1327;22621;-77
2021/11/09 07:00:20;;;;;;;13.00;8.70;;;;;;;6.93;84.40;99848.29;213258;1322;22779;-76
2021/11/09 07:05:23;;;;;;;13.60;8.80;;;;;;;6.94;84.18;99863.66;213323;1325;24339;-77
2021/11/09 07:10:27;;;;;;;15.20;9.30;;;;;;;6.95;84.68;99868.20;212858;1322;25566;-77
2021/11/09 07:15:30;;;;;;;14.50;7.90;;;;;;;6.92;84.61;99876.42;215046;1316;22576;-77
2021/11/09 07:20:46;;;;;;;15.50;8.40;;;;;;;6.94;84.61;99882.05;215118;1316;23823;-78
2021/11/09 07:25:50;;;;;;;15.40;9.10;;;;;;;6.99;84.33;99891.66;214542;1316;23053;-77
2021/11/09 07:31:02;;;;;;;14.80;9.90;;;;;;;7.04;84.70;99902.44;214534;1316;24289;-77
2021/11/09 07:36:05;;;;;;;15.00;9.40;;;;;;;7.14;85.07;99906.67;214628;1315;25354;-77
2021/11/09 07:41:09;;;;;;;14.50;9.50;;;;;;;7.26;84.89;99920.43;214796;1315;22643;-77
2021/11/09 07:46:12;;;;;;;12.50;8.30;;;;;;;7.41;84.93;99928.69;214632;1319;24256;-77
2021/11/09 07:51:15;;;;;;;11.80;8.20;;;;;;;7.51;84.71;99933.73;214820;1315;22709;-77
2021/11/09 07:56:23;;;;;;;13.10;8.70;;;;;;;7.55;84.24;99945.91;214524;1316;26419;-78
2021/11/09 08:01:59;;;;;;;16.20;9.10;;;;;;;7.52;84.25;99949.38;214854;1316;22620;-78
2021/11/09 08:07:24;;;;;;;12.20;8.60;;;;;;;7.49;84.02;99960.41;214815;1315;25626;-77
2021/11/09 08:12:33;;;;;;;12.30;8.20;;;;;;;7.49;84.09;99968.46;214684;1316;25450;-77
2021/11/09 08:17:58;;;;;;;10.80;7.70;;;;;;;7.52;84.15;99971.45;214808;1316;24245;-77
2021/11/09 08:23:00;;;;;;;11.50;8.20;;;;;;;7.57;84.26;99984.55;214964;1315;22681;-76
2021/11/09 08:28:03;;;;;;;11.60;7.50;;;;;;;7.55;83.91;99990.77;214860;1316;24896;-77
2021/11/09 08:33:06;;;;;;;11.30;7.60;;;;;;;7.58;83.98;99999.28;214898;1316;22819;-77
2021/11/09 08:38:08;;;;;;;10.60;7.30;;;;;;;7.69;84.47;100004.29;214767;1316;25429;-77
2021/11/09 08:43:16;;;;;;;9.30;6.80;;;;;;;7.85;84.50;100006.61;214892;1316;25582;-77
2021/11/09 08:48:20;;;;;;;10.80;7.30;;;;;;;7.94;83.93;100017.24;214968;1316;22593;-77
2021/11/09 08:53:34;;;;;;;9.70;6.60;;;;;;;8.03;83.71;100027.84;215037;1313;24288;-78
2021/11/09 09:09:14;;;;;;;7.10;5.80;;;;;;;8.47;83.43;100048.02;215140;1316;24410;-77
2021/11/09 09:14:31;;;;;;;9.10;6.40;;;;;;;8.55;82.90;100055.05;214965;1316;25442;-78
2021/11/09 09:19:59;;;;;;;7.50;5.70;;;;;;;8.53;82.49;100064.48;215576;1313;25504;-78
2021/11/09 09:56:54;;;;;;;13.40;9.10;;;;;;;9.03;81.37;100096.54;215649;1315;24294;-76
2021/11/09 10:02:19;;;;;;;9.70;7.80;;;;;;;9.05;80.84;100101.85;215547;1314;24238;-76
2021/11/09 10:07:33;;;;;;;9.30;7.80;;;;;;;9.05;80.52;100105.66;215706;1310;22827;-76
2021/11/09 10:12:38;;;;;;;10.00;7.80;;;;;;;9.08;80.74;100108.25;215383;1313;24298;-77
2021/11/09 10:17:47;;;;;;;8.50;7.00;;;;;;;9.29;80.82;100113.27;215436;1310;22563;-76
2021/11/09 10:22:53;;;;;;;9.10;6.80;;;;;;;9.36;79.95;100113.23;215650;1310;22571;-77
2021/11/09 10:28:03;;;;;;;9.50;7.20;;;;;;;9.50;80.25;100117.11;215458;1310;22602;-77
2021/11/09 10:33:10;;;;;;;10.30;8.30;;;;;;;9.71;79.87;100121.59;215510;1313;22926;-77
2021/11/09 10:38:13;;;;;;;10.80;7.80;;;;;;;9.67;79.32;100132.52;215524;1312;22614;-77
2021/11/09 10:43:22;;;;;;;10.40;7.40;;;;;;;9.64;79.00;100136.81;215528;1313;22603;-77
2021/11/09 10:48:25;;;;;;;12.10;7.70;;;;;;;9.63;78.83;100134.02;215849;1310;25401;-77
2021/11/09 10:53:51;;;;;;;10.30;7.50;;;;;;;9.68;78.91;100131.63;215204;1312;24260;-77
2021/11/09 11:04:10;;;;;;;5.80;5.00;;;;;;;9.94;78.13;100132.41;215196;1312;23838;-76
2021/11/09 11:09:13;;;;;;;6.80;4.50;;;;;;;9.98;77.65;100139.84;215156;1313;25460;-77
2021/11/09 11:14:45;;;;;;;7.40;5.00;;;;;;;10.07;77.66;100146.73;215137;1312;22691;-77
2021/11/09 11:19:55;;;;;;;7.30;6.40;;;;;;;10.19;77.62;100149.11;215294;1313;25275;-77
2021/11/09 11:24:59;;;;;;;6.80;5.40;;;;;;;10.28;77.22;100156.87;215246;1312;25898;-77
2021/11/09 11:30:03;;;;;;;9.10;6.00;;;;;;;10.31;76.56;100155.04;215550;1313;22650;-76
2021/11/09 11:35:06;;;;;;;7.20;5.30;;;;;;;10.37;76.78;100161.92;215509;1312;24659;-76
2021/11/09 11:40:10;;;;;;;8.20;6.00;;;;;;;10.53;76.47;100169.37;215174;1312;23309;-76
2021/11/09 11:45:22;;;;;;;11.10;7.60;;;;;;;10.58;76.13;100169.24;214999;1319;26542;-76
2021/11/09 11:50:38;;;;;;;10.40;7.00;;;;;;;10.42;75.78;100170.53;215221;1312;23172;-77
2021/11/09 11:55:40;;;;;;;7.60;6.30;;;;;;;10.25;75.77;100169.15;215386;1314;22580;-76
2021/11/09 12:00:55;;;;;;;11.30;7.10;;;;;;;10.06;75.57;100167.93;215854;1310;24298;-77
2021/11/09 12:06:00;;;;;;;9.50;6.60;;;;;;;9.88;75.79;100169.96;215807;1316;22559;-76
2021/11/09 12:11:05;;;;;;;11.30;7.50;;;;;;;9.77;76.32;100172.85;215101;1318;24346;-76
2021/11/09 12:16:09;;;;;;;8.80;6.00;;;;;;;9.68;76.14;100176.58;215751;1310;22592;-76
2021/11/09 12:21:19;;;;;;;8.60;6.10;;;;;;;9.56;76.33;100176.10;215385;1315;25457;-77
2021/11/09 12:26:47;;;;;;;9.30;6.80;;;;;;;9.57;76.89;100175.42;215316;1310;22980;-76
2021/11/09 12:31:49;;;;;;;8.20;5.70;;;;;;;9.59;76.91;100173.02;215558;1310;22898;-77
2021/11/09 12:37:18;;;;;;;8.00;5.30;;;;;;;9.57;76.79;100168.95;215405;1313;22613;-76
2021/11/09 12:42:21;;;;;;;8.70;5.50;;;;;;;9.54;76.59;100173.51;215257;1315;25177;-76
2021/11/09 12:47:23;;;;;;;9.70;6.30;;;;;;;9.45;76.46;100178.30;215564;1310;25402;-75
2021/11/09 12:52:26;;;;;;;7.50;5.70;;;;;;;9.37;76.77;100172.26;215155;1313;22568;-76
2021/11/09 12:57:34;;;;;;;9.10;6.10;;;;;;;9.31;76.88;100174.79;214919;1313;24720;-76
2021/11/09 13:02:48;;;;;;;6.20;4.90;;;;;;;9.17;76.77;100165.59;215631;1310;24258;-77
2021/11/09 13:07:52;;;;;;;7.00;5.40;;;;;;;8.99;77.04;100167.27;215397;1310;168375;-76
2021/11/09 13:12:56;;;;;;;8.00;5.40;;;;;;;8.90;77.25;100174.92;215272;1310;24269;-76
2021/11/09 13:18:05;;;;;;;12.80;7.30;;;;;;;8.84;77.28;100175.45;215618;1310;24394;-76
2021/11/09 13:23:15;;;;;;;8.50;5.80;;;;;;;8.85;77.74;100177.77;215506;1314;22652;-76
2021/11/09 13:28:20;;;;;;;;;;;;;;;8.91;77.62;100172.95;215944;1311;22642;-76
2021/11/09 13:33:25;;;;;;;5.10;4.40;;;;;;;8.93;77.39;100174.27;215860;1315;25508;-76
2021/11/09 13:38:40;;;;;;;7.10;4.70;;;;;;;8.88;77.17;100173.08;215310;1316;22652;-76
2021/11/09 13:44:18;;;;;;;8.00;5.60;;;;;;;8.86;77.03;100172.81;215630;1311;22652;-77
2021/11/09 13:50:10;;;;;;;8.80;5.60;;;;;;;8.82;77.13;100172.58;215887;1310;24399;-75
2021/11/09 13:55:27;;;;;;;7.10;4.90;;;;;;;8.78;77.21;100173.38;215727;1310;24273;-78
2021/11/09 14:00:49;;;;;;;7.70;5.70;;;;;;;8.75;77.03;100173.77;215311;1313;25399;-77
2021/11/09 14:17:06;;;;;;;7.70;4.70;;;;;;;8.99;76.98;100175.16;215225;1316;24338;-76
2021/11/09 14:22:18;;;;;;;9.90;5.40;;;;;;;9.08;77.04;100176.38;215691;1313;24261;-76
2021/11/09 14:27:38;;;;;;;8.50;6.50;;;;;;;9.15;76.97;100177.55;215809;1310;24231;-76
2021/11/09 14:33:21;;;;;;;10.00;6.70;;;;;;;9.17;76.78;100170.90;215961;1310;23285;-77
2021/11/09 14:38:27;;;;;;;12.20;7.70;;;;;;;9.13;76.76;100164.80;216263;1317;24639;-77
2021/11/09 14:43:37;;;;;;;14.90;9.30;;;;;;;9.07;76.64;100166.84;215309;1312;24972;-78
2021/11/09 14:49:00;;;;;;;19.30;12.40;;;;;;;9.02;76.67;100168.47;215671;1313;24301;-77
2021/11/09 14:54:32;;;;;;;24.60;15.30;;;;;;;9.01;76.80;100168.95;215292;1314;24401;-77
2021/11/09 14:59:36;;;;;;;34.80;19.50;;;;;;;9.01;76.85;100172.73;215479;1309;24282;-76
2021/11/09 15:31:05;;;;;;;35.20;21.70;;;;;;;8.78;76.86;100166.96;215535;1310;24912;-76
2021/11/09 15:36:29;;;;;;;32.10;18.60;;;;;;;8.69;76.47;100166.30;215093;1310;22613;-76
2021/11/09 15:41:33;;;;;;;32.20;18.20;;;;;;;8.62;76.58;100167.87;215162;1312;22873;-77
2021/11/09 15:46:38;;;;;;;29.70;18.60;;;;;;;8.58;76.67;100171.82;215584;1310;25251;-76
2021/11/09 15:51:40;;;;;;;35.40;21.90;;;;;;;8.54;76.80;100184.64;215426;1310;22542;-77
2021/11/09 15:56:44;;;;;;;40.50;20.50;;;;;;;8.52;76.87;100191.47;215045;1310;22610;-76
2021/11/09 16:01:47;;;;;;;37.30;21.10;;;;;;;8.52;76.92;100197.74;215221;1310;24400;-76
2021/11/09 16:06:50;;;;;;;37.80;21.50;;;;;;;8.53;77.01;100201.92;215607;1310;22978;-77
2021/11/09 16:11:55;;;;;;;39.10;22.90;;;;;;;8.52;77.02;100203.30;215761;1305;24544;-77
2021/11/09 16:16:59;;;;;;;30.10;18.90;;;;;;;8.54;77.23;100207.17;215442;1316;24253;-77
2021/11/09 16:22:04;;;;;;;29.70;18.40;;;;;;;8.50;77.17;100203.84;215037;1316;24292;-75
2021/11/09 16:27:07;;;;;;;32.40;19.20;;;;;;;8.41;76.63;100208.56;215212;1317;26392;-76
2021/11/09 16:32:11;;;;;;;34.50;21.10;;;;;;;8.26;76.35;100220.23;215116;1310;22567;-76
2021/11/09 16:37:16;;;;;;;39.10;23.80;;;;;;;8.12;76.63;100230.85;215142;1314;24359;-76
2021/11/09 16:42:32;;;;;;;39.50;20.70;;;;;;;8.01;76.87;100234.80;215011;1317;24429;-77
2021/11/09 16:47:36;;;;;;;42.40;22.50;;;;;;;7.87;76.87;100237.53;215666;1316;24320;-76
2021/11/09 16:52:38;;;;;;;35.20;20.20;;;;;;;7.72;76.88;100241.66;215734;1312;23099;-75
2021/11/09 16:58:03;;;;;;;32.60;18.90;;;;;;;7.59;77.26;100245.13;215101;1318;24260;-77
2021/11/09 18:23:16;;;;;;;75.20;38.10;;;;;;;5.82;79.10;100281.19;215236;1314;24260;-77
2021/11/09 18:28:19;;;;;;;89.10;43.30;;;;;;;5.70;79.13;100279.10;215201;1310;25277;-76
2021/11/09 18:33:22;;;;;;;98.20;46.50;;;;;;;5.58;79.18;100280.88;215471;1316;22590;-76
2021/11/09 18:38:24;;;;;;;88.80;46.60;;;;;;;5.51;79.63;100280.13;215479;1316;25285;-77
2021/11/09 18:43:28;;;;;;;96.50;49.90;;;;;;;5.44;79.63;100279.06;215543;1316;24381;-77
2021/11/09 18:48:31;;;;;;;95.00;46.20;;;;;;;5.37;79.95;100275.42;215097;1316;22802;-77
2021/11/09 18:53:34;;;;;;;89.00;45.10;;;;;;;5.25;79.74;100276.57;215409;1310;25483;-77
2021/11/09 18:58:36;;;;;;;88.40;43.60;;;;;;;5.13;79.78;100277.96;214784;1315;24242;-77
2021/11/09 19:03:39;;;;;;;70.20;38.00;;;;;;;5.02;79.79;100276.89;214856;1315;24237;-76
2021/11/09 19:08:42;;;;;;;76.90;41.20;;;;;;;4.90;79.75;100278.56;215038;1316;23030;-76
2021/11/09 19:13:46;;;;;;;88.10;46.80;;;;;;;4.77;79.85;100279.98;215194;1311;22617;-77
2021/11/09 19:19:02;;;;;;;99.40;53.80;;;;;;;4.63;80.10;100281.70;215027;1316;24297;-76
2021/11/09 19:24:26;;;;;;;102.90;52.50;;;;;;;4.49;80.24;100286.28;215001;1314;25351;-76
2021/11/09 19:29:29;;;;;;;146.60;76.40;;;;;;;4.36;80.29;100285.23;215524;1315;22870;-77
2021/11/09 19:34:34;;;;;;;162.30;83.90;;;;;;;4.28;80.64;100286.41;215356;1317;24375;-76
2021/11/09 19:39:38;;;;;;;161.10;84.60;;;;;;;4.24;80.71;100291.13;214953;1315;25032;-76
2021/11/09 19:44:40;;;;;;;154.60;78.80;;;;;;;4.18;80.77;100299.29;214758;1317;24474;-76
2021/11/09 19:49:43;;;;;;;145.40;77.50;;;;;;;4.15;81.16;100304.20;215047;1315;22708;-76
2021/11/09 19:54:45;;;;;;;129.90;70.90;;;;;;;4.12;81.42;100303.38;215500;1314;25313;-76
2021/11/09 19:59:48;;;;;;;116.60;58.10;;;;;;;4.02;81.29;100309.58;214875;1314;24404;-75
2021/11/09 20:04:52;;;;;;;98.70;50.00;;;;;;;3.94;81.22;100312.58;214964;1313;22718;-76
2021/11/09 20:09:59;;;;;;;87.20;45.30;;;;;;;3.94;81.79;100314.36;215244;1310;24400;-77
2021/11/09 20:15:21;;;;;;;75.80;41.10;;;;;;;3.99;82.05;100317.87;215350;1310;24228;-76
2021/11/09 20:20:25;;;;;;;66.20;35.60;;;;;;;4.04;82.18;100316.27;215312;1315;25444;-77
2021/11/09 20:25:28;;;;;;;59.90;33.40;;;;;;;4.13;82.57;100313.10;215315;1310;25732;-76
2021/11/09 20:30:31;;;;;;;63.50;33.10;;;;;;;4.23;82.68;100314.73;215421;1310;22640;-76
2021/11/09 20:35:34;;;;;;;72.00;38.60;;;;;;;4.31;82.85;100310.04;215273;1310;24262;-76
2021/11/09 20:40:36;;;;;;;80.60;44.30;;;;;;;4.34;82.85;100309.04;214789;1314;24343;-76
2021/11/09 20:45:39;;;;;;;72.60;39.10;;;;;;;4.35;82.83;100297.92;215306;1316;22908;-76
2021/11/09 20:50:41;;;;;;;88.50;45.00;;;;;;;4.33;82.67;100283.37;214190;1313;22593;-75
2021/11/09 20:55:45;;;;;;;96.90;48.50;;;;;;;4.27;82.36;100274.89;215325;1314;22810;-76
2021/11/09 21:00:48;;;;;;;85.00;43.80;;;;;;;4.20;82.15;100260.73;215661;1315;24279;-76
2021/11/09 21:05:51;;;;;;;70.40;37.80;;;;;;;4.09;81.92;100252.48;215081;1318;22813;-76
2021/11/09 21:10:54;;;;;;;85.50;47.30;;;;;;;3.96;81.84;100250.11;214784;1314;170368;-77
2021/11/09 21:21:21;;;;;;;115.90;56.40;;;;;;;3.56;81.53;100238.58;214920;1317;24305;-76
2021/11/09 21:26:29;;;;;;;127.00;63.40;;;;;;;3.38;81.47;100223.99;215067;1317;25429;-75
2021/11/09 21:36:54;;;;;;;98.50;50.40;;;;;;;2.96;81.75;100211.86;214887;1316;24253;-75
2021/11/09 21:41:58;;;;;;;82.30;43.40;;;;;;;2.83;81.74;100197.71;215339;1310;24702;-76
2021/11/09 21:47:01;;;;;;;81.30;39.10;;;;;;;2.71;81.92;100179.15;215379;1316;25284;-76
2021/11/09 21:52:04;;;;;;;75.30;38.80;;;;;;;2.65;82.25;100197.11;214878;1310;22591;-76
2021/11/09 21:57:08;;;;;;;76.30;39.00;;;;;;;2.58;82.22;100192.67;214895;1314;24725;-76
2021/11/09 22:02:11;;;;;;;76.60;37.30;;;;;;;2.55;82.63;100184.52;215031;1313;22629;-76
2021/11/09 22:07:14;;;;;;;66.60;36.90;;;;;;;2.57;82.97;100174.48;214892;1319;24237;-77
2021/11/09 22:12:16;;;;;;;63.90;32.90;;;;;;;2.56;83.15;100185.02;214915;1310;24311;-77
2021/11/09 22:17:19;;;;;;;73.30;35.60;;;;;;;2.50;83.06;100193.31;215037;1317;25508;-76
2021/11/09 22:22:22;;;;;;;49.70;27.90;;;;;;;2.48;83.34;100201.08;215503;1310;22870;-75
2021/11/09 22:27:24;;;;;;;54.10;28.50;;;;;;;2.52;83.58;100210.69;215384;1316;24282;-75
2021/11/09 22:32:27;;;;;;;54.30;28.70;;;;;;;2.62;83.94;100220.68;215310;1314;24263;-75
2021/11/09 22:37:30;;;;;;;55.30;30.50;;;;;;;2.69;83.83;100211.28;215068;1317;24904;-76
2021/11/09 22:42:32;;;;;;;58.50;29.70;;;;;;;2.70;83.55;100195.78;215335;1316;25418;-76
2021/11/09 22:47:37;;;;;;;53.00;28.70;;;;;;;2.69;83.59;100202.06;215114;1317;25795;-76
2021/11/09 22:52:53;;;;;;;55.50;29.40;;;;;;;2.64;83.47;100193.70;215004;1316;25449;-75
2021/11/09 22:58:12;;;;;;;61.40;30.90;;;;;;;2.52;83.36;100193.39;215040;1313;23072;-75
2021/11/09 23:03:27;;;;;;;62.20;33.30;;;;;;;2.40;83.41;100190.52;214929;1314;24320;-75
2021/11/09 23:08:30;;;;;;;61.60;32.60;;;;;;;2.34;83.66;100201.52;215138;1313;25344;-77
2021/11/09 23:13:43;;;;;;;57.80;31.30;;;;;;;2.31;83.74;100196.52;214967;1314;24783;-76
2021/11/09 23:18:46;;;;;;;64.80;31.00;;;;;;;2.28;83.64;100193.41;215044;1317;24320;-76
2021/11/09 23:23:48;;;;;;;61.00;32.70;;;;;;;2.27;84.03;100202.12;215630;1316;24492;-76
2021/11/09 23:28:52;;;;;;;64.40;31.50;;;;;;;2.25;83.85;100206.50;214990;1319;24266;-77
2021/11/09 23:33:55;;;;;;;64.90;31.70;;;;;;;2.22;84.10;100204.30;214897;1318;24257;-76
2021/11/09 23:39:04;;;;;;;60.80;31.50;;;;;;;2.21;84.27;100196.69;215292;1313;25527;-75
2021/11/09 23:44:15;;;;;;;65.20;32.20;;;;;;;2.18;84.31;100197.25;215165;1315;22571;-77
2021/11/09 23:49:31;;;;;;;64.20;33.40;;;;;;;2.16;84.21;100201.72;214852;1317;24932;-77
2021/11/09 23:54:35;;;;;;;63.60;33.50;;;;;;;2.18;84.51;100198.10;215393;1314;24326;-76
2021/11/09 23:59:37;;;;;;;66.40;35.60;;;;;;;2.16;84.18;100204.23;215331;1317;22567;-76
